Time;durP1;ratioP1;P1;durP2;ratioP2;P2;SDS_P1;SDS_P2;PMS_P1;PMS_P2;Temp;Humidity;BMP_temperature;BMP_pressure;BME280_temperature;BME280_humidity;BME280_pressure;Samples;Min_cycle;Max_cycle;Signal;HPM_P1;HPM_P2
2023/06/17 00:01:34;;;;;;;3.65;2.75;;;;;;;;;;5053325;28;20025;-60
2023/06/17 00:04:02;;;;;;;4.53;2.88;;;;;;;;;;5053945;28;20024;-60
2023/06/17 00:06:27;;;;;;;4.18;3.10;;;;;;;;;;5053123;28;20028;-60
2023/06/17 00:08:54;;;;;;;4.63;3.05;;;;;;;;;;5056034;28;20036;-60
2023/06/17 00:11:20;;;;;;;3.15;2.58;;;;;;;;;;5056919;28;20061;-60
2023/06/17 00:13:46;;;;;;;3.67;2.80;;;;;;;;;;5057363;28;20047;-60
2023/06/17 00:16:12;;;;;;;4.13;2.83;;;;;;;;;;5057369;28;20052;-60
2023/06/17 00:18:41;;;;;;;4.50;3.25;;;;;;;;;;5056771;28;20094;-60
2023/06/17 00:21:08;;;;;;;3.88;2.78;;;;;;;;;;5057250;28;20044;-60
2023/06/17 00:23:34;;;;;;;3.47;2.88;;;;;;;;;;5057012;28;20021;-60
2023/06/17 00:26:01;;;;;;;4.10;3.08;;;;;;;;;;5057004;28;20111;-60
2023/06/17 00:28:27;;;;;;;4.30;3.03;;;;;;;;;;5056697;28;20120;-60
2023/06/17 00:30:53;;;;;;;4.05;3.30;;;;;;;;;;5056654;28;20052;-60
2023/06/17 00:33:19;;;;;;;4.28;3.38;;;;;;;;;;5056564;28;20025;-60
2023/06/17 00:35:45;;;;;;;7.03;3.53;;;;;;;;;;5056280;28;20063;-60
2023/06/17 00:38:11;;;;;;;3.85;3.35;;;;;;;;;;5056986;28;20021;-60
2023/06/17 00:40:37;;;;;;;3.50;2.92;;;;;;;;;;5056395;28;20459;-60
2023/06/17 00:43:03;;;;;;;4.38;2.92;;;;;;;;;;5056952;28;20071;-60
2023/06/17 00:45:29;;;;;;;3.45;2.72;;;;;;;;;;5056641;28;20031;-60
2023/06/17 00:47:55;;;;;;;5.45;2.75;;;;;;;;;;5056876;28;20025;-60
2023/06/17 00:50:21;;;;;;;6.95;3.80;;;;;;;;;;5056282;28;20103;-60
2023/06/17 00:52:51;;;;;;;7.40;3.58;;;;;;;;;;5056146;28;20032;-60
2023/06/17 00:55:17;;;;;;;3.65;3.00;;;;;;;;;;5056370;28;20414;-60
2023/06/17 00:57:45;;;;;;;3.95;3.00;;;;;;;;;;5056702;28;20051;-60
2023/06/17 01:00:12;;;;;;;3.72;3.33;;;;;;;;;;5056495;28;20029;-60
2023/06/17 01:02:43;;;;;;;6.60;2.88;;;;;;;;;;5056017;28;20025;-60
2023/06/17 01:05:11;;;;;;;5.38;3.22;;;;;;;;;;5056223;28;20039;-60
2023/06/17 01:07:43;;;;;;;4.38;3.10;;;;;;;;;;5055843;28;20056;-60
2023/06/17 01:10:13;;;;;;;3.72;3.00;;;;;;;;;;5055804;28;20032;-60
2023/06/17 01:12:41;;;;;;;6.03;3.40;;;;;;;;;;5056166;28;20056;-60
2023/06/17 01:15:08;;;;;;;5.00;3.17;;;;;;;;;;5055494;28;20067;-60
2023/06/17 01:17:35;;;;;;;3.63;2.85;;;;;;;;;;5055714;28;20029;-60
2023/06/17 01:20:03;;;;;;;4.00;3.35;;;;;;;;;;5055273;28;20029;-60
2023/06/17 01:22:29;;;;;;;4.22;3.17;;;;;;;;;;5055789;28;20025;-60
2023/06/17 01:24:56;;;;;;;3.55;3.03;;;;;;;;;;5056367;28;20023;-60
2023/06/17 01:27:23;;;;;;;4.40;3.55;;;;;;;;;;5056116;28;20021;-60
2023/06/17 01:29:49;;;;;;;5.63;3.13;;;;;;;;;;5055457;28;20040;-60
2023/06/17 01:32:15;;;;;;;4.38;3.63;;;;;;;;;;5055737;28;20033;-61
2023/06/17 01:35:19;;;;;;;4.63;3.58;;;;;;;;;;5055354;28;20032;-60
2023/06/17 01:37:49;;;;;;;6.47;3.53;;;;;;;;;;5033012;28;20510;-60
2023/06/17 01:40:18;;;;;;;4.10;3.03;;;;;;;;;;5033064;28;20472;-60
2023/06/17 01:42:47;;;;;;;6.80;3.88;;;;;;;;;;5044173;28;20399;-60
2023/06/17 01:45:14;;;;;;;3.50;3.03;;;;;;;;;;5055260;28;20100;-60
2023/06/17 01:47:40;;;;;;;4.85;2.90;;;;;;;;;;5055729;28;20438;-60
2023/06/17 01:50:07;;;;;;;4.28;3.40;;;;;;;;;;5054801;28;20471;-60
2023/06/17 01:52:33;;;;;;;3.88;3.42;;;;;;;;;;5054797;28;20017;-60
2023/06/17 01:54:59;;;;;;;5.15;3.65;;;;;;;;;;5054949;28;20060;-60
2023/06/17 01:57:26;;;;;;;6.47;3.38;;;;;;;;;;5055313;28;20017;-60
2023/06/17 01:59:53;;;;;;;4.63;3.92;;;;;;;;;;5054374;28;20454;-60
2023/06/17 02:02:19;;;;;;;4.45;3.70;;;;;;;;;;5055104;28;20463;-60
2023/06/17 02:04:47;;;;;;;5.72;3.13;;;;;;;;;;5054853;28;20078;-60
2023/06/17 02:07:13;;;;;;;4.07;3.63;;;;;;;;;;5054952;28;20446;-60
2023/06/17 02:09:39;;;;;;;4.95;3.88;;;;;;;;;;5054681;28;20028;-60
2023/06/17 02:12:06;;;;;;;4.63;3.83;;;;;;;;;;5054660;28;20100;-60
2023/06/17 02:14:33;;;;;;;4.88;3.80;;;;;;;;;;5055063;28;20132;-60
2023/06/17 02:16:59;;;;;;;3.85;3.45;;;;;;;;;;5055103;28;20106;-60
2023/06/17 02:19:28;;;;;;;4.30;3.25;;;;;;;;;;5055000;28;20032;-60
2023/06/17 02:21:54;;;;;;;4.43;3.50;;;;;;;;;;5054985;28;20025;-60
2023/06/17 02:24:21;;;;;;;4.45;3.42;;;;;;;;;;5054223;28;20485;-60
2023/06/17 02:26:49;;;;;;;3.97;3.40;;;;;;;;;;5054966;28;20079;-60
2023/06/17 02:29:15;;;;;;;3.55;2.67;;;;;;;;;;5054891;28;20032;-60
2023/06/17 02:31:41;;;;;;;3.53;3.15;;;;;;;;;;5053598;28;20080;-60
2023/06/17 02:34:07;;;;;;;4.55;3.38;;;;;;;;;;5054530;28;20060;-60
2023/06/17 02:36:33;;;;;;;4.78;3.58;;;;;;;;;;5054352;28;20021;-60
2023/06/17 02:39:02;;;;;;;6.32;3.95;;;;;;;;;;5054178;28;20025;-60
2023/06/17 02:41:28;;;;;;;3.47;3.10;;;;;;;;;;5054358;28;20025;-60
2023/06/17 02:43:54;;;;;;;3.92;3.33;;;;;;;;;;5054104;28;20104;-60
2023/06/17 02:46:20;;;;;;;4.75;3.83;;;;;;;;;;5054537;28;20025;-60
2023/06/17 02:48:46;;;;;;;4.53;3.70;;;;;;;;;;5053976;28;20041;-60
2023/06/17 02:51:12;;;;;;;4.90;3.63;;;;;;;;;;5054558;28;20154;-60
2023/06/17 02:53:38;;;;;;;4.28;3.55;;;;;;;;;;5054695;28;20047;-60
2023/06/17 02:56:04;;;;;;;4.20;3.60;;;;;;;;;;5053945;28;20021;-60
2023/06/17 02:58:30;;;;;;;4.82;3.65;;;;;;;;;;5053817;28;20029;-60
2023/06/17 03:00:57;;;;;;;6.22;3.97;;;;;;;;;;5053791;28;20036;-60
2023/06/17 03:03:33;;;;;;;4.53;3.97;;;;;;;;;;5053739;28;20017;-60
2023/06/17 03:06:01;;;;;;;8.10;3.50;;;;;;;;;;5054292;28;20028;-60
2023/06/17 03:08:27;;;;;;;4.40;3.97;;;;;;;;;;5053659;28;20489;-60
2023/06/17 03:10:53;;;;;;;5.85;4.22;;;;;;;;;;5053723;28;20471;-60
2023/06/17 03:13:19;;;;;;;4.95;3.55;;;;;;;;;;5054200;28;20086;-60
2023/06/17 03:15:45;;;;;;;4.57;3.78;;;;;;;;;;5053787;28;20535;-60
2023/06/17 03:18:12;;;;;;;6.07;4.38;;;;;;;;;;5053878;28;20025;-60
2023/06/17 03:20:38;;;;;;;4.90;3.95;;;;;;;;;;5054307;28;20033;-60
2023/06/17 03:23:04;;;;;;;4.35;3.55;;;;;;;;;;5052816;28;20435;-60
2023/06/17 03:25:31;;;;;;;4.55;3.65;;;;;;;;;;5053635;28;20052;-60
2023/06/17 03:28:00;;;;;;;4.90;4.40;;;;;;;;;;5053597;28;20025;-60
2023/06/17 03:30:26;;;;;;;5.25;4.40;;;;;;;;;;5053125;28;20036;-60
2023/06/17 03:32:53;;;;;;;3.97;3.50;;;;;;;;;;5053861;28;20108;-60
2023/06/17 03:35:20;;;;;;;6.72;4.30;;;;;;;;;;5054040;28;20096;-60
2023/06/17 03:37:46;;;;;;;6.13;4.43;;;;;;;;;;5053555;28;20033;-60
2023/06/17 03:40:13;;;;;;;6.40;4.80;;;;;;;;;;5053176;28;20037;-60
2023/06/17 03:42:39;;;;;;;5.00;4.30;;;;;;;;;;5056321;28;20078;-60
2023/06/17 03:45:05;;;;;;;6.80;5.13;;;;;;;;;;5057274;28;20104;-60
2023/06/17 03:47:31;;;;;;;5.38;4.47;;;;;;;;;;5058272;28;20025;-60
2023/06/17 03:49:57;;;;;;;5.50;5.00;;;;;;;;;;5057404;28;20031;-60
2023/06/17 03:52:23;;;;;;;6.10;5.05;;;;;;;;;;5057864;28;20028;-60
2023/06/17 03:54:50;;;;;;;5.65;4.70;;;;;;;;;;5058149;28;20028;-60
2023/06/17 03:57:16;;;;;;;5.30;4.80;;;;;;;;;;5057316;28;20455;-60
2023/06/17 03:59:42;;;;;;;5.82;4.43;;;;;;;;;;5057398;28;20029;-60
2023/06/17 04:02:08;;;;;;;6.00;4.80;;;;;;;;;;5057436;28;20029;-60
2023/06/17 04:04:34;;;;;;;5.28;4.75;;;;;;;;;;5057134;28;20017;-60
2023/06/17 04:07:02;;;;;;;6.40;5.10;;;;;;;;;;5057598;28;20025;-60
2023/06/17 04:09:27;;;;;;;5.50;4.85;;;;;;;;;;5057562;28;20033;-60
2023/06/17 04:11:53;;;;;;;5.45;4.85;;;;;;;;;;5057092;28;20120;-60
2023/06/17 04:14:19;;;;;;;5.18;4.45;;;;;;;;;;5056864;28;20025;-60
2023/06/17 04:16:45;;;;;;;5.32;4.63;;;;;;;;;;5057342;28;20018;-60
2023/06/17 04:19:13;;;;;;;7.55;5.22;;;;;;;;;;5057057;28;20091;-60
2023/06/17 04:21:39;;;;;;;5.43;4.93;;;;;;;;;;5057098;28;20450;-60
2023/06/17 04:24:05;;;;;;;6.07;5.15;;;;;;;;;;5056850;28;20128;-60
2023/06/17 04:26:32;;;;;;;5.97;5.00;;;;;;;;;;5057134;28;20510;-60
2023/06/17 04:29:00;;;;;;;6.63;4.93;;;;;;;;;;5057568;28;20025;-60
2023/06/17 04:31:27;;;;;;;6.43;5.70;;;;;;;;;;5056622;28;20029;-60
2023/06/17 04:33:53;;;;;;;6.18;5.00;;;;;;;;;;5056603;28;20029;-60
2023/06/17 04:36:20;;;;;;;5.35;4.85;;;;;;;;;;5057219;28;20027;-60
2023/06/17 04:38:49;;;;;;;6.43;4.18;;;;;;;;;;5056471;28;20035;-60
2023/06/17 04:41:15;;;;;;;6.18;5.10;;;;;;;;;;5056156;28;20490;-60
2023/06/17 04:43:45;;;;;;;6.10;4.45;;;;;;;;;;5056713;28;20053;-60
2023/06/17 04:46:12;;;;;;;6.88;4.78;;;;;;;;;;5057016;28;20060;-60
2023/06/17 04:48:38;;;;;;;6.05;4.88;;;;;;;;;;5056424;28;20031;-60
2023/06/17 04:51:07;;;;;;;8.40;5.28;;;;;;;;;;5056337;28;20017;-60
2023/06/17 04:53:33;;;;;;;5.45;4.85;;;;;;;;;;5055577;28;20025;-60
2023/06/17 04:56:00;;;;;;;5.25;4.75;;;;;;;;;;5056266;28;20029;-60
2023/06/17 04:58:26;;;;;;;5.03;4.10;;;;;;;;;;5056045;28;20032;-60
2023/06/17 05:00:52;;;;;;;5.07;4.18;;;;;;;;;;5056467;28;20029;-60
2023/06/17 05:03:18;;;;;;;6.03;4.95;;;;;;;;;;5056144;28;20025;-60
2023/06/17 05:05:44;;;;;;;6.85;5.20;;;;;;;;;;5056132;28;20040;-60
2023/06/17 05:08:10;;;;;;;6.25;5.15;;;;;;;;;;5056023;28;20383;-60
2023/06/17 05:10:36;;;;;;;5.90;5.30;;;;;;;;;;5056407;28;20048;-60
2023/06/17 05:13:02;;;;;;;5.63;5.10;;;;;;;;;;5055958;28;20024;-60
2023/06/17 05:15:28;;;;;;;5.97;5.38;;;;;;;;;;5056148;28;20099;-61
2023/06/17 05:17:54;;;;;;;5.70;5.10;;;;;;;;;;5056112;28;20033;-60
2023/06/17 05:20:20;;;;;;;7.03;5.60;;;;;;;;;;5055608;28;20029;-60
2023/06/17 05:22:46;;;;;;;8.65;5.47;;;;;;;;;;5055735;28;20064;-60
2023/06/17 05:25:12;;;;;;;6.30;4.88;;;;;;;;;;5056154;28;20075;-60
2023/06/17 05:27:38;;;;;;;7.75;5.45;;;;;;;;;;5056475;28;20029;-60
2023/06/17 05:30:05;;;;;;;6.03;5.40;;;;;;;;;;5055544;28;20115;-60
2023/06/17 05:32:31;;;;;;;5.07;4.60;;;;;;;;;;5055393;28;20035;-60
2023/06/17 05:34:57;;;;;;;7.10;5.68;;;;;;;;;;5055462;28;20025;-60
2023/06/17 05:37:23;;;;;;;6.43;5.78;;;;;;;;;;5055776;28;20060;-60
2023/06/17 05:39:49;;;;;;;6.45;5.65;;;;;;;;;;5055287;28;20033;-60
2023/06/17 05:42:14;;;;;;;6.80;5.50;;;;;;;;;;5056189;28;20467;-60
2023/06/17 05:44:40;;;;;;;8.38;5.20;;;;;;;;;;5055093;28;20475;-60
2023/06/17 05:47:06;;;;;;;8.25;6.07;;;;;;;;;;5055805;28;20486;-60
2023/06/17 05:49:32;;;;;;;5.90;5.40;;;;;;;;;;5055213;28;20033;-60
2023/06/17 05:51:58;;;;;;;6.65;6.03;;;;;;;;;;5055424;28;20113;-60
2023/06/17 05:54:24;;;;;;;6.32;5.55;;;;;;;;;;5054865;28;20483;-60
2023/06/17 05:56:50;;;;;;;6.20;5.40;;;;;;;;;;5055113;28;20367;-60
2023/06/17 05:59:16;;;;;;;6.28;5.53;;;;;;;;;;5055528;28;20040;-60
2023/06/17 06:01:42;;;;;;;6.88;5.78;;;;;;;;;;5054994;28;20032;-60
2023/06/17 06:04:08;;;;;;;7.32;5.28;;;;;;;;;;5055485;28;20386;-60
2023/06/17 06:06:34;;;;;;;7.20;4.82;;;;;;;;;;5054206;28;20450;-60
2023/06/17 06:09:00;;;;;;;5.93;5.13;;;;;;;;;;5055185;28;20029;-60
2023/06/17 06:11:26;;;;;;;6.22;5.50;;;;;;;;;;5054807;28;20025;-60
2023/06/17 06:13:52;;;;;;;8.52;6.00;;;;;;;;;;5055531;28;20063;-60
2023/06/17 06:16:18;;;;;;;11.18;4.82;;;;;;;;;;5054672;28;20057;-60
2023/06/17 06:18:44;;;;;;;5.28;4.78;;;;;;;;;;5054583;28;20021;-60
2023/06/17 06:21:10;;;;;;;6.15;4.78;;;;;;;;;;5055013;28;20025;-60
2023/06/17 06:23:37;;;;;;;8.65;5.60;;;;;;;;;;5054197;28;20029;-60
2023/06/17 06:26:03;;;;;;;5.22;4.72;;;;;;;;;;5054794;28;20439;-60
2023/06/17 06:28:29;;;;;;;5.95;5.20;;;;;;;;;;5055277;28;20032;-60
2023/06/17 06:30:55;;;;;;;6.03;4.80;;;;;;;;;;5054442;28;20363;-60
2023/06/17 06:33:22;;;;;;;7.22;5.43;;;;;;;;;;5054652;28;20104;-60
2023/06/17 06:35:48;;;;;;;6.05;5.15;;;;;;;;;;5054345;28;20029;-60
2023/06/17 06:38:14;;;;;;;5.30;4.80;;;;;;;;;;5054817;28;20028;-60
2023/06/17 06:40:40;;;;;;;7.50;4.88;;;;;;;;;;5054757;28;20036;-60
2023/06/17 06:43:06;;;;;;;5.10;4.40;;;;;;;;;;5054722;28;20065;-60
2023/06/17 06:45:32;;;;;;;4.90;4.05;;;;;;;;;;5054075;28;20099;-60
2023/06/17 06:47:58;;;;;;;6.35;4.93;;;;;;;;;;5054838;28;20451;-60
2023/06/17 06:50:25;;;;;;;6.68;5.50;;;;;;;;;;5054684;28;20410;-60
2023/06/17 06:52:51;;;;;;;5.90;4.97;;;;;;;;;;5053950;28;20109;-60
2023/06/17 06:55:17;;;;;;;5.35;4.72;;;;;;;;;;5054162;28;20042;-60
2023/06/17 06:57:42;;;;;;;5.45;4.45;;;;;;;;;;5054560;28;20025;-60
2023/06/17 07:00:09;;;;;;;6.63;5.00;;;;;;;;;;5054200;28;20032;-60
2023/06/17 07:02:35;;;;;;;5.82;5.22;;;;;;;;;;5053770;28;20108;-60
2023/06/17 07:05:01;;;;;;;6.65;5.53;;;;;;;;;;5054530;28;20020;-60
2023/06/17 07:07:27;;;;;;;7.03;4.38;;;;;;;;;;5053630;28;20025;-60
2023/06/17 07:09:53;;;;;;;5.93;4.13;;;;;;;;;;5053813;28;20360;-60
2023/06/17 07:12:19;;;;;;;5.70;4.68;;;;;;;;;;5053781;28;20021;-60
2023/06/17 07:14:45;;;;;;;6.32;4.90;;;;;;;;;;5053975;28;20442;-60
2023/06/17 07:17:11;;;;;;;5.82;4.32;;;;;;;;;;5053733;28;20069;-60
2023/06/17 07:19:37;;;;;;;6.38;4.35;;;;;;;;;;5053621;28;20128;-60
2023/06/17 07:22:03;;;;;;;6.95;4.80;;;;;;;;;;5054149;28;20029;-60
2023/06/17 07:24:29;;;;;;;6.32;5.00;;;;;;;;;;5053979;28;20363;-60
2023/06/17 07:26:55;;;;;;;5.65;5.10;;;;;;;;;;5054247;28;20017;-60
2023/06/17 07:29:21;;;;;;;6.97;4.32;;;;;;;;;;5053453;28;20067;-60
2023/06/17 07:31:47;;;;;;;6.57;4.95;;;;;;;;;;5053239;28;20021;-61
2023/06/17 07:34:13;;;;;;;7.65;4.38;;;;;;;;;;5053783;28;20033;-60
2023/06/17 07:36:39;;;;;;;5.88;4.78;;;;;;;;;;5054085;28;20404;-61
2023/06/17 07:39:05;;;;;;;5.60;4.90;;;;;;;;;;5053984;28;20073;-61
2023/06/17 07:41:31;;;;;;;5.18;4.68;;;;;;;;;;5053489;28;20363;-61
2023/06/17 07:43:57;;;;;;;5.70;5.13;;;;;;;;;;5053971;28;20025;-60
2023/06/17 07:46:23;;;;;;;9.35;4.90;;;;;;;;;;5053749;28;20025;-61
2023/06/17 07:48:49;;;;;;;13.02;5.45;;;;;;;;;;5053620;28;20107;-61
2023/06/17 07:51:15;;;;;;;6.70;5.25;;;;;;;;;;5053391;28;20374;-61
2023/06/17 07:53:41;;;;;;;4.80;4.30;;;;;;;;;;5053300;28;20032;-61
2023/06/17 07:56:07;;;;;;;5.97;4.82;;;;;;;;;;5054107;28;20079;-61
2023/06/17 07:58:33;;;;;;;5.63;5.03;;;;;;;;;;5053290;28;20029;-61
2023/06/17 08:01:00;;;;;;;6.47;5.00;;;;;;;;;;5052993;28;20036;-61
2023/06/17 08:03:27;;;;;;;6.78;4.95;;;;;;;;;;5053440;28;20497;-61
2023/06/17 08:05:53;;;;;;;6.05;5.00;;;;;;;;;;5053333;28;20037;-61
2023/06/17 08:08:20;;;;;;;6.10;4.82;;;;;;;;;;5052902;28;20096;-61
2023/06/17 08:10:46;;;;;;;6.53;4.93;;;;;;;;;;5053160;28;20033;-61
2023/06/17 08:13:12;;;;;;;7.97;4.30;;;;;;;;;;5053040;28;20098;-61
2023/06/17 08:15:38;;;;;;;5.38;4.20;;;;;;;;;;5053210;28;20418;-61
2023/06/17 08:18:04;;;;;;;5.32;4.43;;;;;;;;;;5053140;28;20128;-61
2023/06/17 08:20:30;;;;;;;6.28;4.32;;;;;;;;;;5052790;28;20074;-61
2023/06/17 08:22:56;;;;;;;5.70;4.75;;;;;;;;;;5053057;28;20112;-61
2023/06/17 08:25:22;;;;;;;5.95;4.10;;;;;;;;;;5053055;28;20442;-61
2023/06/17 08:27:48;;;;;;;4.82;4.03;;;;;;;;;;5053915;28;20059;-61
2023/06/17 08:30:14;;;;;;;6.90;4.63;;;;;;;;;;5055973;28;20065;-61
2023/06/17 08:32:40;;;;;;;5.35;3.88;;;;;;;;;;5056678;28;20025;-61
2023/06/17 08:35:07;;;;;;;4.60;3.55;;;;;;;;;;5056519;28;20055;-61
2023/06/17 08:37:33;;;;;;;7.95;4.10;;;;;;;;;;5056815;28;20090;-61
2023/06/17 08:39:59;;;;;;;5.55;3.88;;;;;;;;;;5056917;28;20029;-61
2023/06/17 08:42:27;;;;;;;5.03;4.50;;;;;;;;;;5056414;28;20024;-61
2023/06/17 08:44:55;;;;;;;6.45;5.28;;;;;;;;;;5056330;28;20053;-61
2023/06/17 08:47:21;;;;;;;6.75;4.88;;;;;;;;;;5056705;28;20029;-61
2023/06/17 08:49:47;;;;;;;5.55;4.80;;;;;;;;;;5057035;28;20120;-61
2023/06/17 08:52:14;;;;;;;6.97;5.20;;;;;;;;;;5056275;28;20345;-59
2023/06/17 08:54:40;;;;;;;6.28;4.60;;;;;;;;;;5056222;28;20026;-59
2023/06/17 08:57:17;;;;;;;6.25;4.65;;;;;;;;;;5056700;28;20027;-60
2023/06/17 08:59:43;;;;;;;7.50;4.70;;;;;;;;;;5056639;28;20033;-60
2023/06/17 09:02:14;;;;;;;5.35;4.07;;;;;;;;;;5056299;28;20029;-60
2023/06/17 09:04:40;;;;;;;4.60;4.03;;;;;;;;;;5056040;28;20029;-60
2023/06/17 09:07:09;;;;;;;6.07;4.97;;;;;;;;;;5056150;28;20025;-60
2023/06/17 09:09:36;;;;;;;4.63;4.00;;;;;;;;;;5056148;28;20032;-60
2023/06/17 09:12:05;;;;;;;5.22;4.50;;;;;;;;;;5055876;28;20025;-61
2023/06/17 09:14:32;;;;;;;5.35;4.85;;;;;;;;;;5056207;28;20025;-61
2023/06/17 09:17:00;;;;;;;8.55;4.38;;;;;;;;;;5055759;28;20025;-60
2023/06/17 09:19:26;;;;;;;7.60;5.13;;;;;;;;;;5056438;28;20025;-60
2023/06/17 09:21:53;;;;;;;4.55;4.15;;;;;;;;;;5054508;28;20032;-60
2023/06/17 09:24:19;;;;;;;9.98;4.88;;;;;;;;;;5056274;28;20360;-61
2023/06/17 09:26:45;;;;;;;5.80;5.18;;;;;;;;;;5055575;28;20017;-60
2023/06/17 09:29:14;;;;;;;5.32;4.32;;;;;;;;;;5055531;28;20029;-60
2023/06/17 09:31:50;;;;;;;4.80;4.32;;;;;;;;;;5056046;28;20028;-61
2023/06/17 09:34:16;;;;;;;5.60;4.47;;;;;;;;;;5055459;28;20017;-60
2023/06/17 09:36:43;;;;;;;6.40;4.53;;;;;;;;;;5055749;28;20032;-61
2023/06/17 09:39:10;;;;;;;4.50;3.67;;;;;;;;;;5055901;28;20027;-60
2023/06/17 09:41:37;;;;;;;4.32;3.92;;;;;;;;;;5055497;28;20036;-60
2023/06/17 09:44:03;;;;;;;4.22;3.83;;;;;;;;;;5055507;28;20029;-60
2023/06/17 09:46:29;;;;;;;6.72;3.50;;;;;;;;;;5055787;28;20421;-60
2023/06/17 09:48:58;;;;;;;3.90;3.50;;;;;;;;;;5055092;28;20056;-60
2023/06/17 09:51:25;;;;;;;4.70;3.63;;;;;;;;;;5055080;28;20021;-60
2023/06/17 09:53:51;;;;;;;4.47;3.28;;;;;;;;;;5055355;28;20029;-60
2023/06/17 09:56:18;;;;;;;4.55;3.63;;;;;;;;;;5055739;28;20021;-60
2023/06/17 09:58:44;;;;;;;7.13;3.25;;;;;;;;;;5054861;28;20030;-61
2023/06/17 10:01:11;;;;;;;5.10;3.72;;;;;;;;;;5055028;28;20029;-60
2023/06/17 10:03:39;;;;;;;4.32;3.47;;;;;;;;;;5055226;28;20032;-61
2023/06/17 10:06:08;;;;;;;7.93;3.22;;;;;;;;;;5054816;28;20029;-61
2023/06/17 10:08:35;;;;;;;4.68;3.47;;;;;;;;;;5055110;28;20086;-61
2023/06/17 10:11:01;;;;;;;6.15;4.07;;;;;;;;;;5054828;28;20017;-61
2023/06/17 10:13:29;;;;;;;5.70;3.83;;;;;;;;;;5054754;28;20100;-60
2023/06/17 10:15:56;;;;;;;4.22;3.53;;;;;;;;;;5054868;28;20398;-60
2023/06/17 10:18:22;;;;;;;3.50;3.17;;;;;;;;;;5054671;28;20021;-60
2023/06/17 10:20:49;;;;;;;8.77;4.32;;;;;;;;;;5054811;28;20025;-60
2023/06/17 10:23:16;;;;;;;7.45;3.30;;;;;;;;;;5054491;28;20064;-60
2023/06/17 10:25:42;;;;;;;4.32;3.92;;;;;;;;;;5054533;28;20027;-60
2023/06/17 10:28:08;;;;;;;3.38;3.08;;;;;;;;;;5054768;28;20027;-60
2023/06/17 10:49:20;;;;;;;4.95;3.45;;;;;;;;;;5053787;28;20576;-60
2023/06/17 10:51:47;;;;;;;6.25;3.90;;;;;;;;;;5053860;28;20021;-61
2023/06/17 10:54:13;;;;;;;5.07;3.38;;;;;;;;;;5053773;28;20065;-61
2023/06/17 10:56:51;;;;;;;5.43;2.72;;;;;;;;;;5054741;28;20427;-61
2023/06/17 10:59:24;;;;;;;3.85;3.00;;;;;;;;;;5053922;28;20039;-62
2023/06/17 11:01:50;;;;;;;4.18;3.67;;;;;;;;;;5053881;28;20036;-62
2023/06/17 11:04:17;;;;;;;4.65;3.80;;;;;;;;;;5054202;28;20422;-63
2023/06/17 11:06:47;;;;;;;4.32;3.67;;;;;;;;;;5053818;28;20030;-61
2023/06/17 11:09:13;;;;;;;3.60;3.13;;;;;;;;;;5054097;28;20027;-61
2023/06/17 11:11:39;;;;;;;4.22;3.72;;;;;;;;;;5053809;28;20104;-61
2023/06/17 11:14:05;;;;;;;3.83;3.15;;;;;;;;;;5053757;28;20029;-62
2023/06/17 11:16:32;;;;;;;3.72;2.95;;;;;;;;;;5054611;28;20049;-61
2023/06/17 11:18:59;;;;;;;3.63;2.80;;;;;;;;;;5053556;28;20078;-61
2023/06/17 11:21:25;;;;;;;3.95;2.88;;;;;;;;;;5053608;28;20120;-61
2023/06/17 11:23:52;;;;;;;4.38;3.30;;;;;;;;;;5054119;28;20032;-61
2023/06/17 11:26:18;;;;;;;4.40;3.25;;;;;;;;;;5054266;28;20048;-61
2023/06/17 11:28:44;;;;;;;5.32;3.33;;;;;;;;;;5053542;28;20017;-61
2023/06/17 11:31:10;;;;;;;4.75;3.53;;;;;;;;;;5053801;28;20025;-61
2023/06/17 11:33:36;;;;;;;4.75;3.60;;;;;;;;;;5053869;28;20147;-60
2023/06/17 11:36:07;;;;;;;3.88;3.42;;;;;;;;;;5053553;28;20340;-61
2023/06/17 11:38:33;;;;;;;5.50;3.72;;;;;;;;;;5054303;28;20056;-61
2023/06/17 11:40:59;;;;;;;3.28;2.97;;;;;;;;;;5054098;28;20029;-60
2023/06/17 11:43:26;;;;;;;6.38;3.13;;;;;;;;;;5053539;28;20029;-60
2023/06/17 11:45:58;;;;;;;5.28;4.15;;;;;;;;;;5053494;28;20021;-60
2023/06/17 11:48:34;;;;;;;4.18;3.50;;;;;;;;;;5053913;28;20435;-60
2023/06/17 11:50:59;;;;;;;4.25;3.50;;;;;;;;;;5053948;28;20025;-60
2023/06/17 11:53:29;;;;;;;4.72;2.72;;;;;;;;;;5053404;28;20064;-60
2023/06/17 11:55:55;;;;;;;3.92;3.08;;;;;;;;;;5053685;28;20032;-61
2023/06/17 11:58:25;;;;;;;4.28;3.70;;;;;;;;;;5053713;28;20021;-61
2023/06/17 12:00:51;;;;;;;4.53;3.88;;;;;;;;;;5053903;28;20405;-61
2023/06/17 12:03:18;;;;;;;5.95;3.47;;;;;;;;;;5053343;28;20028;-61
2023/06/17 12:05:44;;;;;;;4.35;3.60;;;;;;;;;;5057184;28;20116;-61
2023/06/17 12:08:10;;;;;;;4.00;3.33;;;;;;;;;;5056852;28;20088;-61
2023/06/17 12:10:39;;;;;;;3.90;3.30;;;;;;;;;;5057791;28;20025;-61
2023/06/17 12:13:05;;;;;;;5.80;3.17;;;;;;;;;;5057380;28;20029;-61
2023/06/17 12:15:31;;;;;;;6.03;3.60;;;;;;;;;;5057869;28;20368;-61
2023/06/17 12:18:09;;;;;;;4.65;2.92;;;;;;;;;;5056884;28;20017;-61
2023/06/17 12:20:36;;;;;;;4.50;3.10;;;;;;;;;;5057077;28;20493;-61
2023/06/17 12:23:02;;;;;;;7.05;3.50;;;;;;;;;;5057103;28;20025;-61
2023/06/17 12:25:28;;;;;;;3.33;2.75;;;;;;;;;;5057589;28;20021;-61
2023/06/17 12:27:54;;;;;;;3.85;3.13;;;;;;;;;;5057364;28;20017;-61
2023/06/17 12:30:20;;;;;;;4.82;4.00;;;;;;;;;;5056721;28;20031;-61
2023/06/17 12:32:46;;;;;;;5.43;2.95;;;;;;;;;;5057256;28;20028;-61
2023/06/17 12:35:14;;;;;;;4.68;3.80;;;;;;;;;;5056651;28;20027;-61
2023/06/17 12:37:41;;;;;;;3.95;3.33;;;;;;;;;;5056349;28;20028;-61
2023/06/17 12:40:08;;;;;;;4.80;3.38;;;;;;;;;;5056510;28;20033;-61
2023/06/17 12:42:34;;;;;;;3.72;3.03;;;;;;;;;;5056537;28;20033;-61
2023/06/17 12:45:01;;;;;;;5.13;2.97;;;;;;;;;;5056719;28;20108;-61
2023/06/17 12:47:27;;;;;;;3.75;3.33;;;;;;;;;;5057325;28;20060;-61
2023/06/17 12:49:53;;;;;;;5.10;3.08;;;;;;;;;;5056931;28;20052;-61
2023/06/17 12:52:19;;;;;;;5.03;2.88;;;;;;;;;;5056798;28;20104;-61
2023/06/17 12:54:45;;;;;;;5.72;2.67;;;;;;;;;;5056219;28;20021;-61
2023/06/17 12:57:13;;;;;;;4.68;3.20;;;;;;;;;;5056541;28;20033;-61
2023/06/17 12:59:38;;;;;;;4.25;2.95;;;;;;;;;;5056118;28;20037;-61
2023/06/17 13:02:05;;;;;;;3.95;3.55;;;;;;;;;;5056080;28;20479;-61
2023/06/17 13:04:31;;;;;;;3.30;2.30;;;;;;;;;;5056093;28;20017;-61
2023/06/17 13:06:57;;;;;;;4.22;3.05;;;;;;;;;;5056209;28;20147;-61
2023/06/17 13:09:24;;;;;;;3.47;2.95;;;;;;;;;;5056567;28;20032;-61
2023/06/17 13:11:50;;;;;;;5.28;2.85;;;;;;;;;;5055996;28;20463;-61
2023/06/17 13:14:18;;;;;;;7.90;3.10;;;;;;;;;;5055626;28;20025;-61
2023/06/17 13:16:44;;;;;;;5.03;3.13;;;;;;;;;;5056468;28;20127;-61
2023/06/17 13:19:10;;;;;;;3.63;2.75;;;;;;;;;;5055779;28;20029;-61
2023/06/17 13:21:36;;;;;;;3.85;2.88;;;;;;;;;;5055653;28;20033;-61
2023/06/17 13:24:03;;;;;;;4.18;2.97;;;;;;;;;;5055471;28;20478;-61
2023/06/17 13:26:29;;;;;;;3.75;2.85;;;;;;;;;;5056309;28;20028;-61
2023/06/17 13:28:56;;;;;;;4.07;3.30;;;;;;;;;;5055636;28;20025;-61
2023/06/17 13:31:22;;;;;;;11.52;3.50;;;;;;;;;;5056106;28;20025;-61
2023/06/17 13:33:48;;;;;;;4.57;2.53;;;;;;;;;;5056045;28;20354;-61
2023/06/17 13:36:14;;;;;;;4.93;3.25;;;;;;;;;;5056092;28;20021;-61
2023/06/17 13:38:40;;;;;;;3.83;2.58;;;;;;;;;;5055697;28;20025;-61
2023/06/17 13:41:06;;;;;;;3.83;3.42;;;;;;;;;;5056112;28;20123;-61
2023/06/17 13:43:32;;;;;;;5.35;3.30;;;;;;;;;;5055304;28;20021;-61
2023/06/17 13:45:58;;;;;;;3.67;2.85;;;;;;;;;;5055869;28;20477;-61
2023/06/17 13:48:24;;;;;;;3.25;2.72;;;;;;;;;;5055368;28;20049;-61
2023/06/17 13:50:50;;;;;;;7.20;3.45;;;;;;;;;;5055780;28;20021;-61
2023/06/17 13:53:16;;;;;;;4.32;3.38;;;;;;;;;;5055218;28;20029;-61
2023/06/17 13:55:42;;;;;;;4.25;2.97;;;;;;;;;;5055739;28;20021;-61
2023/06/17 13:58:08;;;;;;;2.70;2.10;;;;;;;;;;5055189;28;20057;-61
2023/06/17 14:00:34;;;;;;;3.55;2.88;;;;;;;;;;5054965;28;20025;-61
2023/06/17 14:03:00;;;;;;;4.53;3.13;;;;;;;;;;5055449;28;20029;-61
2023/06/17 14:05:26;;;;;;;4.35;3.05;;;;;;;;;;5055062;28;20021;-61
2023/06/17 14:07:52;;;;;;;5.82;3.58;;;;;;;;;;5055504;28;20021;-61
2023/06/17 14:10:19;;;;;;;5.57;2.78;;;;;;;;;;5054542;28;20136;-61
2023/06/17 14:12:45;;;;;;;5.07;3.80;;;;;;;;;;5054708;28;20049;-61
2023/06/17 14:15:11;;;;;;;4.10;3.10;;;;;;;;;;5054687;28;20053;-61
2023/06/17 14:17:37;;;;;;;4.53;3.00;;;;;;;;;;5055399;28;20106;-61
2023/06/17 14:20:03;;;;;;;6.20;2.83;;;;;;;;;;5054246;28;20112;-61
2023/06/17 14:22:30;;;;;;;4.32;3.35;;;;;;;;;;5054258;28;20047;-61
2023/06/17 14:24:56;;;;;;;3.97;2.60;;;;;;;;;;5055036;28;20096;-61
2023/06/17 14:27:41;;;;;;;4.00;3.10;;;;;;;;;;5054259;28;20032;-61
2023/06/17 14:30:09;;;;;;;5.70;3.45;;;;;;;;;;5053485;28;20021;-61
2023/06/17 14:32:35;;;;;;;4.18;3.28;;;;;;;;;;5055120;28;20028;-61
2023/06/17 14:35:01;;;;;;;5.05;3.20;;;;;;;;;;5054388;28;20103;-61
2023/06/17 14:37:28;;;;;;;5.50;3.50;;;;;;;;;;5054354;28;20078;-61
2023/06/17 14:39:54;;;;;;;4.35;3.30;;;;;;;;;;5054155;28;20025;-61
2023/06/17 14:42:20;;;;;;;4.22;3.28;;;;;;;;;;5054210;28;20029;-61
2023/06/17 14:44:47;;;;;;;4.53;3.50;;;;;;;;;;5054243;28;20066;-61
2023/06/17 14:47:13;;;;;;;6.35;3.40;;;;;;;;;;5054655;28;20024;-61
2023/06/17 14:49:39;;;;;;;3.88;3.30;;;;;;;;;;5054099;28;20540;-61
2023/06/17 14:52:06;;;;;;;4.13;3.60;;;;;;;;;;5054475;28;20033;-61
2023/06/17 14:54:33;;;;;;;4.88;3.35;;;;;;;;;;5053948;28;20032;-62
2023/06/17 14:56:59;;;;;;;6.68;3.35;;;;;;;;;;5054542;28;20021;-61
2023/06/17 14:59:25;;;;;;;6.65;3.92;;;;;;;;;;5053845;28;20035;-61